Time;durP1;ratioP1;P1;durP2;ratioP2;P2;SDS_P1;SDS_P2;PMS_P1;PMS_P2;Temp;Humidity;BMP_temperature;BMP_pressure;BME280_temperature;BME280_humidity;BME280_pressure;Samples;Min_cycle;Max_cycle;Signal;HPM_P1;HPM_P2
2022/05/05 00:00:14;;;;;;;7.73;4.77;;;;;;;4.95;100.00;101439.47;4968591;28;20023;-73
2022/05/05 00:02:39;;;;;;;9.63;4.85;;;;;;;4.89;100.00;101440.72;4968292;28;20035;-71
2022/05/05 00:05:05;;;;;;;10.73;5.87;;;;;;;4.81;100.00;101446.56;4943513;28;20041;-71
2022/05/05 00:07:31;;;;;;;13.07;5.65;;;;;;;4.78;100.00;101453.88;4950834;28;20042;-75
2022/05/05 00:09:56;;;;;;;9.48;4.65;;;;;;;4.81;100.00;101456.31;4953898;28;20027;-71
2022/05/05 00:15:07;;;;;;;5.72;4.45;;;;;;;4.68;100.00;101455.47;4971268;28;20074;-75
2022/05/05 00:17:34;;;;;;;;;;;;;;;4.75;100.00;101462.00;4968845;28;20039;-74
2022/05/05 00:20:00;;;;;;;5.13;3.45;;;;;;;4.74;100.00;101455.03;4968321;28;19925;-72
2022/05/05 00:22:25;;;;;;;12.43;5.30;;;;;;;4.68;100.00;101450.16;4968479;28;20561;-74
2022/05/05 00:24:51;;;;;;;6.90;4.25;;;;;;;4.68;100.00;101450.16;4968568;28;20042;-74
2022/05/05 00:27:16;;;;;;;5.00;3.47;;;;;;;4.64;100.00;101438.97;4968701;28;20042;-75
2022/05/05 00:29:42;;;;;;;6.97;3.90;;;;;;;4.70;100.00;101437.69;4950613;28;20042;-72
2022/05/05 00:32:07;;;;;;;11.37;4.33;;;;;;;4.70;100.00;101438.53;4968316;28;20105;-72
2022/05/05 00:34:33;;;;;;;6.65;4.15;;;;;;;4.72;100.00;101431.34;4950992;28;20190;-73
2022/05/05 00:36:58;;;;;;;8.33;3.67;;;;;;;4.71;100.00;101432.31;4967785;28;20081;-72
2022/05/05 00:39:23;;;;;;;11.20;5.57;;;;;;;4.62;100.00;101431.13;4968879;28;20034;-71
2022/05/05 00:41:50;;;;;;;5.20;3.97;;;;;;;4.61;100.00;101439.16;4950361;28;20464;-74
2022/05/05 00:44:16;;;;;;;11.57;5.38;;;;;;;4.56;100.00;101431.56;4968354;28;20459;-74
2022/05/05 00:46:51;;;;;;;11.97;5.30;;;;;;;4.52;100.00;101443.31;4967932;28;20134;-73
2022/05/05 00:49:17;;;;;;;7.25;3.95;;;;;;;4.46;100.00;101433.16;4967917;28;20039;-74
2022/05/05 00:51:43;;;;;;;;;;;;;;;4.42;100.00;101429.03;4967794;28;20038;-73
2022/05/05 00:54:08;;;;;;;12.50;4.50;;;;;;;4.33;100.00;101419.94;4951945;28;20177;-71
2022/05/05 00:56:34;;;;;;;9.37;4.20;;;;;;;4.23;100.00;101417.06;4974756;28;20027;-71
2022/05/05 00:59:01;;;;;;;5.47;3.80;;;;;;;4.19;100.00;101423.53;4967324;28;20033;-72
2022/05/05 01:01:26;;;;;;;8.27;4.18;;;;;;;4.13;100.00;101423.09;4944364;28;20041;-71
2022/05/05 01:03:52;;;;;;;9.00;4.60;;;;;;;4.06;100.00;101417.38;4948990;28;20042;-72
2022/05/05 01:06:18;;;;;;;8.77;4.30;;;;;;;4.00;100.00;101434.50;4945534;28;20027;-71
2022/05/05 01:08:44;;;;;;;11.35;5.55;;;;;;;3.98;100.00;101432.88;4967127;28;20085;-73
2022/05/05 01:11:10;;;;;;;;;;;;;;;3.97;100.00;101445.25;4968514;28;20049;-73
2022/05/05 01:13:39;;;;;;;;;;;;;;;3.97;100.00;101444.41;4968164;28;20383;-74
2022/05/05 01:16:05;;;;;;;7.25;4.75;;;;;;;3.95;100.00;101446.31;4967246;28;20283;-72
2022/05/05 01:18:30;;;;;;;9.77;3.83;;;;;;;3.91;100.00;101448.34;4967645;28;20153;-76
2022/05/05 01:20:55;;;;;;;9.50;4.10;;;;;;;3.83;100.00;101429.50;4967420;28;20035;-77
2022/05/05 01:23:21;;;;;;;7.57;4.40;;;;;;;3.78;100.00;101442.16;4962367;28;20093;-72
2022/05/05 01:28:34;;;;;;;5.68;3.88;;;;;;;3.84;100.00;101457.63;4969338;28;20057;-73
2022/05/05 01:31:00;;;;;;;8.10;4.05;;;;;;;3.84;100.00;101451.47;4941639;28;20464;-75
2022/05/05 01:33:27;;;;;;;7.05;3.42;;;;;;;3.79;100.00;101463.19;4968367;28;20523;-73
2022/05/05 01:35:54;;;;;;;8.65;4.85;;;;;;;3.79;100.00;101468.47;4950040;28;20034;-72
2022/05/05 01:38:22;;;;;;;6.78;3.83;;;;;;;3.81;100.00;101471.84;4946133;28;20085;-72
2022/05/05 01:40:48;;;;;;;9.55;4.10;;;;;;;3.87;100.00;101488.25;4953391;28;20086;-71
2022/05/05 01:43:15;;;;;;;10.50;4.80;;;;;;;3.77;100.00;101475.66;4946028;28;20043;-71
2022/05/05 01:45:40;;;;;;;14.25;5.60;;;;;;;3.88;100.00;101487.31;4966974;28;20301;-75
2022/05/05 01:48:06;;;;;;;7.55;4.20;;;;;;;3.83;100.00;101477.03;4966937;28;20066;-74
2022/05/05 01:50:31;;;;;;;5.40;4.30;;;;;;;3.74;100.00;101470.56;4950327;28;20039;-71
2022/05/05 01:52:58;;;;;;;5.87;4.23;;;;;;;3.66;100.00;101470.22;4966903;28;20030;-72
2022/05/05 01:55:23;;;;;;;;;;;;;;;3.62;100.00;101471.38;4968171;28;20031;-72
2022/05/05 01:57:48;;;;;;;;;;;;;;;3.56;100.00;101477.06;4961425;28;19914;-73
2022/05/05 02:00:15;;;;;;;10.50;4.60;;;;;;;3.47;100.00;101478.50;4939694;28;20179;-72
2022/05/05 02:02:44;;;;;;;;;;;;;;;3.43;100.00;101487.56;4966951;28;20035;-77
2022/05/05 02:05:11;;;;;;;18.27;5.55;;;;;;;3.36;100.00;101487.09;4970495;28;19917;-72
2022/05/05 02:07:37;;;;;;;6.93;4.70;;;;;;;3.28;100.00;101480.63;4965547;28;20066;-72
2022/05/05 02:10:08;;;;;;;8.88;4.97;;;;;;;3.24;100.00;101494.94;4965588;28;20671;-73
2022/05/05 02:12:36;;;;;;;11.52;4.93;;;;;;;3.17;100.00;101491.84;4966288;28;20035;-71
2022/05/05 02:15:09;;;;;;;11.02;5.75;;;;;;;3.11;100.00;101487.81;4961833;28;20023;-75
2022/05/05 02:17:36;;;;;;;11.25;5.80;;;;;;;3.09;100.00;101494.09;4949339;28;20077;-72
2022/05/05 02:20:03;;;;;;;8.40;5.43;;;;;;;3.07;100.00;101491.56;4962883;28;20022;-73
2022/05/05 02:22:28;;;;;;;9.80;5.50;;;;;;;3.06;100.00;101507.50;4966979;28;20074;-71
2022/05/05 02:24:54;;;;;;;9.77;5.73;;;;;;;3.03;100.00;101505.06;4967099;28;20113;-73
2022/05/05 02:27:19;;;;;;;6.80;5.20;;;;;;;2.98;100.00;101512.41;4970794;28;20057;-76
2022/05/05 02:29:46;;;;;;;6.87;5.00;;;;;;;2.95;100.00;101509.00;4949911;28;20034;-72
2022/05/05 02:32:12;;;;;;;9.43;5.85;;;;;;;2.96;100.00;101510.69;4936680;28;20035;-74
2022/05/05 02:34:37;;;;;;;15.73;7.72;;;;;;;3.04;100.00;101527.84;4966683;28;20477;-74
2022/05/05 02:39:47;;;;;;;15.77;7.05;;;;;;;3.06;100.00;101520.69;4956947;28;20279;-72
2022/05/05 02:42:13;;;;;;;9.37;6.20;;;;;;;3.11;100.00;101537.94;4967048;28;20038;-71
2022/05/05 02:44:38;;;;;;;20.70;8.03;;;;;;;3.09;100.00;101529.28;4966530;28;20301;-72
2022/05/05 02:47:04;;;;;;;9.30;6.10;;;;;;;3.09;100.00;101533.69;4953841;28;20035;-71
2022/05/05 02:49:29;;;;;;;9.70;5.95;;;;;;;3.08;100.00;101530.19;4970066;28;20460;-76
2022/05/05 02:51:54;;;;;;;13.23;6.37;;;;;;;3.07;100.00;101538.22;4949056;28;20038;-73
2022/05/05 02:57:04;;;;;;;11.75;5.13;;;;;;;2.90;100.00;101526.91;4964866;28;20035;-72
2022/05/05 02:59:30;;;;;;;10.05;5.93;;;;;;;2.91;100.00;101527.75;4976077;28;20047;-73
2022/05/05 03:01:55;;;;;;;12.50;6.77;;;;;;;2.90;100.00;101531.31;4969370;28;20035;-71
2022/05/05 03:04:20;;;;;;;13.43;6.20;;;;;;;2.89;100.00;101519.94;4944913;28;20332;-72
2022/05/05 03:06:46;;;;;;;9.47;5.53;;;;;;;2.87;100.00;101528.88;4968498;28;20034;-71
2022/05/05 03:09:11;;;;;;;10.63;5.73;;;;;;;2.84;100.00;101527.28;4957638;28;20035;-71
2022/05/05 03:11:36;;;;;;;13.03;6.17;;;;;;;2.82;100.00;101513.34;4976215;28;20123;-73
2022/05/05 03:14:02;;;;;;;10.20;6.47;;;;;;;2.81;100.00;101516.06;4951669;28;20118;-72
2022/05/05 03:16:27;;;;;;;13.40;6.57;;;;;;;2.81;100.00;101516.06;4972838;28;20038;-71
2022/05/05 03:18:52;;;;;;;17.57;7.60;;;;;;;2.78;100.00;101519.72;4973764;28;20077;-73
2022/05/05 03:21:18;;;;;;;10.03;6.20;;;;;;;2.73;100.00;101522.66;4953583;28;20031;-71
2022/05/05 03:23:43;;;;;;;15.67;8.30;;;;;;;2.76;100.00;101524.25;4975823;28;20567;-72
2022/05/05 03:26:08;;;;;;;14.97;7.43;;;;;;;2.71;100.00;101527.16;4974133;28;20069;-72
2022/05/05 03:28:34;;;;;;;13.47;7.80;;;;;;;2.79;100.00;101533.78;4951602;28;20049;-74
2022/05/05 03:30:59;;;;;;;14.37;6.80;;;;;;;2.72;100.00;101541.22;4956486;28;20046;-73
2022/05/05 03:33:25;;;;;;;16.30;7.87;;;;;;;2.66;100.00;101536.31;4971699;28;20122;-73
2022/05/05 03:35:50;;;;;;;21.87;8.50;;;;;;;2.72;100.00;101539.44;4968390;28;20062;-72
2022/05/05 03:38:15;;;;;;;18.07;9.00;;;;;;;2.71;100.00;101544.78;4946865;28;20133;-74
2022/05/05 03:40:41;;;;;;;15.37;8.63;;;;;;;2.66;100.00;101549.47;4971805;28;20097;-71
2022/05/05 03:43:06;;;;;;;18.55;9.70;;;;;;;2.69;100.00;101554.56;4969301;28;20358;-72
2022/05/05 03:45:32;;;;;;;13.85;8.80;;;;;;;2.68;100.00;101545.81;4942532;28;20104;-72
2022/05/05 03:47:58;;;;;;;14.43;8.05;;;;;;;2.65;100.00;101543.38;4969106;28;20023;-73
2022/05/05 03:50:23;;;;;;;20.15;8.93;;;;;;;2.72;100.00;101549.13;4944574;28;20492;-72
2022/05/05 03:52:48;;;;;;;19.70;9.33;;;;;;;2.70;100.00;101551.00;4968626;28;20023;-71
2022/05/05 03:55:14;;;;;;;22.37;9.60;;;;;;;2.80;100.00;101551.31;4969055;28;20286;-75
2022/05/05 03:57:39;;;;;;;15.47;9.33;;;;;;;2.86;100.00;101549.13;4951519;28;20034;-75
2022/05/05 04:00:05;;;;;;;20.73;11.83;;;;;;;2.88;100.00;101555.19;4968706;28;20027;-73
2022/05/05 04:02:37;;;;;;;17.50;10.13;;;;;;;2.99;100.00;101564.22;4968736;28;20035;-71
2022/05/05 04:05:03;;;;;;;20.58;11.15;;;;;;;3.02;100.00;101566.66;4943943;29;20042;-71
2022/05/05 04:07:28;;;;;;;21.08;9.98;;;;;;;3.08;100.00;101568.94;4954315;28;20050;-71
2022/05/05 04:09:54;;;;;;;18.43;10.63;;;;;;;3.07;100.00;101573.38;4968419;28;20161;-73
2022/05/05 04:12:20;;;;;;;16.73;9.10;;;;;;;3.13;100.00;101574.78;4951361;28;20255;-75
2022/05/05 04:14:47;;;;;;;16.90;9.48;;;;;;;3.13;100.00;101574.78;4970388;28;20045;-71
2022/05/05 04:17:12;;;;;;;;;;;;;;;3.26;100.00;101578.34;4969745;28;20027;-72
2022/05/05 04:19:39;;;;;;;;;;;;;;;3.41;100.00;101583.63;4970321;28;20414;-71
2022/05/05 04:22:04;;;;;;;16.33;9.07;;;;;;;3.50;100.00;101585.69;4958767;28;19924;-75
2022/05/05 04:24:30;;;;;;;15.98;9.50;;;;;;;3.60;100.00;101589.44;4971748;28;20038;-74
2022/05/05 04:26:55;;;;;;;15.47;9.20;;;;;;;3.71;100.00;101583.50;4968182;28;20045;-72
2022/05/05 04:29:21;;;;;;;14.05;9.02;;;;;;;3.79;100.00;101579.44;4944459;28;20365;-73
2022/05/05 04:31:46;;;;;;;16.47;8.67;;;;;;;3.93;100.00;101585.59;4972979;28;20026;-72
2022/05/05 04:34:11;;;;;;;14.63;9.30;;;;;;;4.07;100.00;101588.19;4968937;28;20093;-71
2022/05/05 04:36:37;;;;;;;20.13;8.40;;;;;;;4.17;100.00;101586.66;4967928;28;20491;-76
2022/05/05 04:39:03;;;;;;;15.63;9.30;;;;;;;4.21;100.00;101577.59;4967792;28;20031;-72
2022/05/05 04:41:29;;;;;;;15.48;7.95;;;;;;;4.29;100.00;101563.00;4968216;28;20203;-76
2022/05/05 04:43:54;;;;;;;11.35;7.78;;;;;;;4.48;100.00;101571.41;4942903;28;20555;-75
2022/05/05 04:46:20;;;;;;;16.13;8.40;;;;;;;4.67;100.00;101565.72;4968837;28;20058;-72
2022/05/05 04:48:45;;;;;;;13.93;8.17;;;;;;;4.78;100.00;101559.72;4950205;28;20038;-73
2022/05/05 04:51:11;;;;;;;13.37;6.63;;;;;;;4.83;100.00;101550.50;4959719;28;20035;-71
2022/05/05 04:53:36;;;;;;;14.63;7.75;;;;;;;5.02;100.00;101544.75;4970967;28;20033;-72
2022/05/05 04:56:02;;;;;;;16.50;7.33;;;;;;;5.22;100.00;101540.72;4967906;28;20030;-72
2022/05/05 04:58:27;;;;;;;12.98;6.78;;;;;;;5.49;100.00;101540.56;4946389;28;20066;-72
2022/05/05 05:00:53;;;;;;;12.93;6.53;;;;;;;5.58;100.00;101530.25;4967472;28;20110;-71
2022/05/05 05:03:35;;;;;;;14.93;6.27;;;;;;;5.86;100.00;101535.25;4975259;28;20042;-73
2022/05/05 05:06:06;;;;;;;16.50;6.60;;;;;;;6.04;100.00;101526.91;4967950;28;20339;-72
2022/05/05 05:08:31;;;;;;;9.23;5.85;;;;;;;6.20;100.00;101510.72;4973771;28;20035;-71
2022/05/05 05:10:57;;;;;;;14.70;6.70;;;;;;;6.49;100.00;101500.56;4949952;28;20468;-69
2022/05/05 05:13:23;;;;;;;12.20;6.15;;;;;;;6.82;100.00;101485.63;4968159;28;20031;-69
2022/05/05 05:15:48;;;;;;;11.27;6.73;;;;;;;7.35;100.00;101476.06;4970903;28;20582;-70
2022/05/05 05:18:14;;;;;;;14.03;6.70;;;;;;;7.94;100.00;101468.63;4933086;28;20514;-73
2022/05/05 05:20:39;;;;;;;17.37;5.93;;;;;;;8.00;100.00;101415.75;4969484;28;20088;-73
2022/05/05 05:23:04;;;;;;;11.70;6.20;;;;;;;8.34;100.00;101388.13;4958831;28;20061;-71
2022/05/05 05:25:30;;;;;;;12.13;5.33;;;;;;;8.88;100.00;101371.00;4964384;28;20030;-71
2022/05/05 05:27:57;;;;;;;14.73;5.95;;;;;;;9.36;95.69;101313.41;4967444;28;20026;-70
2022/05/05 05:30:23;;;;;;;15.23;5.50;;;;;;;9.80;91.62;101301.28;4967185;28;20039;-71
2022/05/05 05:32:48;;;;;;;16.35;5.85;;;;;;;10.07;85.66;101233.84;4949298;28;20096;-70
2022/05/05 05:35:14;;;;;;;11.67;5.07;;;;;;;9.91;83.23;101196.28;4971049;28;20031;-70
2022/05/05 05:37:39;;;;;;;8.00;5.67;;;;;;;10.61;83.58;101278.53;4959275;28;20041;-73
2022/05/05 05:40:05;;;;;;;7.87;4.93;;;;;;;11.65;79.65;101267.28;4949615;28;20065;-74
2022/05/05 05:42:30;;;;;;;7.07;4.45;;;;;;;10.89;76.34;101154.63;4975392;28;20125;-72
2022/05/05 05:44:56;;;;;;;10.97;3.90;;;;;;;12.25;72.82;101211.09;4971236;28;20137;-70
2022/05/05 05:47:22;;;;;;;8.95;3.83;;;;;;;12.83;67.69;101115.59;4970345;28;20073;-70
2022/05/05 05:49:47;;;;;;;9.67;4.10;;;;;;;12.56;66.08;101084.63;4949244;28;20483;-70
2022/05/05 05:52:12;;;;;;;9.73;4.07;;;;;;;13.32;65.31;101160.31;4974984;28;20675;-73
2022/05/05 05:54:38;;;;;;;6.87;4.20;;;;;;;13.33;63.32;101098.47;4967714;28;20030;-70
2022/05/05 05:57:04;;;;;;;5.00;4.03;;;;;;;13.50;62.34;101105.44;4970099;28;20038;-70
2022/05/05 05:59:29;;;;;;;11.70;4.97;;;;;;;13.42;62.06;101093.94;4926793;28;20036;-73
2022/05/05 06:04:38;;;;;;;8.68;3.53;;;;;;;13.59;62.49;101172.50;4992825;28;20344;-70
2022/05/05 06:07:04;;;;;;;12.27;4.50;;;;;;;13.96;60.51;101133.44;4968545;28;20022;-71
2022/05/05 06:09:29;;;;;;;8.73;4.37;;;;;;;14.09;60.66;101164.09;4971863;28;20070;-74
2022/05/05 06:11:55;;;;;;;5.90;3.67;;;;;;;13.39;60.83;101081.69;4992366;28;20038;-71
2022/05/05 06:14:20;;;;;;;11.83;4.27;;;;;;;13.32;61.96;101160.31;4968701;28;20038;-71
2022/05/05 06:16:45;;;;;;;10.30;3.63;;;;;;;13.07;62.74;101169.19;4968443;28;20120;-73
2022/05/05 06:19:11;;;;;;;8.33;3.80;;;;;;;12.31;64.60;101162.25;4992737;28;20111;-70
2022/05/05 06:21:36;;;;;;;8.00;4.90;;;;;;;12.77;65.38;101266.31;4994262;28;20038;-71
2022/05/05 06:24:01;;;;;;;10.50;4.17;;;;;;;12.67;66.65;101294.09;4986522;28;20034;-74
2022/05/05 06:26:27;;;;;;;8.97;4.00;;;;;;;12.40;66.55;101264.84;4968614;28;20030;-72
2022/05/05 06:28:55;;;;;;;6.68;4.05;;;;;;;12.84;66.78;101345.88;4984027;28;20046;-71
2022/05/05 06:31:20;;;;;;;11.35;4.72;;;;;;;12.94;64.65;101264.50;4972134;28;20030;-72
2022/05/05 06:33:46;;;;;;;5.60;3.40;;;;;;;12.92;65.31;101298.66;4998273;28;20498;-73
2022/05/05 06:36:11;;;;;;;7.53;3.67;;;;;;;12.72;65.41;101271.34;4972650;28;20411;-71
2022/05/05 06:38:37;;;;;;;7.18;3.75;;;;;;;12.65;68.23;101368.41;4995818;28;20049;-71
2022/05/05 06:41:02;;;;;;;5.10;3.47;;;;;;;13.16;65.78;101336.25;4993353;28;20029;-71
2022/05/05 06:43:29;;;;;;;10.43;4.37;;;;;;;13.17;65.09;101321.00;4975360;28;20038;-72
2022/05/05 06:45:55;;;;;;;6.85;3.78;;;;;;;12.53;67.27;101323.34;4972079;28;20026;-71
2022/05/05 06:48:20;;;;;;;11.07;4.63;;;;;;;13.38;66.05;101380.38;4956962;28;20168;-74
2022/05/05 06:50:46;;;;;;;6.15;3.72;;;;;;;13.70;63.27;101325.06;4994411;28;20026;-71
2022/05/05 06:53:11;;;;;;;7.27;3.10;;;;;;;13.45;62.99;101276.78;4992701;28;20034;-71
2022/05/05 06:55:36;;;;;;;8.10;3.80;;;;;;;13.61;62.28;101272.44;4971829;28;20036;-71
2022/05/05 06:58:02;;;;;;;8.13;3.37;;;;;;;13.78;62.68;101319.69;4989128;28;20037;-73
2022/05/05 07:03:11;;;;;;;5.18;2.88;;;;;;;14.11;62.69;101365.28;4996454;28;20065;-71
2022/05/05 07:05:37;;;;;;;5.77;3.07;;;;;;;13.90;62.78;101331.75;4971527;28;20057;-72
2022/05/05 07:08:03;;;;;;;4.57;2.45;;;;;;;14.17;62.85;101379.88;4998630;28;20487;-74
2022/05/05 07:11:10;;;;;;;5.77;2.10;;;;;;;14.49;63.27;101454.16;4974032;28;20833;-71
2022/05/05 07:13:17;;;;;;;4.40;2.30;;;;;;;14.66;61.03;101340.28;4964403;28;20053;-74
2022/05/05 07:15:43;;;;;;;9.07;3.17;;;;;;;15.08;59.91;101349.81;4995046;28;20124;-72
2022/05/05 07:18:09;;;;;;;13.50;3.17;;;;;;;14.57;56.87;101142.50;4978845;28;20038;-72
2022/05/05 07:20:34;;;;;;;9.73;2.50;;;;;;;13.52;58.68;101089.19;4980923;28;20156;-74
2022/05/05 07:23:00;;;;;;;4.30;2.23;;;;;;;14.00;60.45;101259.09;4976039;28;20050;-72
2022/05/05 07:25:26;;;;;;;9.43;2.73;;;;;;;13.88;58.62;101172.75;4991995;28;20277;-73
2022/05/05 07:27:51;;;;;;;7.78;2.72;;;;;;;14.24;59.29;101266.22;4996372;28;20092;-72
2022/05/05 07:30:17;;;;;;;8.50;2.53;;;;;;;14.80;56.99;101224.97;4954969;28;20031;-72
2022/05/05 07:32:43;;;;;;;7.73;1.93;;;;;;;14.76;58.02;101271.03;4987019;28;20042;-72
2022/05/05 07:35:10;;;;;;;5.18;2.30;;;;;;;15.14;56.19;101246.91;4971135;28;20281;-73
2022/05/05 07:37:37;;;;;;;5.25;2.10;;;;;;;15.37;56.30;101297.16;4970877;28;20141;-72
2022/05/05 07:40:07;;;;;;;;;;;;;;;15.85;55.08;101272.69;4988696;28;20033;-72
2022/05/05 07:42:32;;;;;;;7.10;2.10;;;;;;;14.87;53.60;101048.53;4982794;28;19918;-73
2022/05/05 07:44:58;;;;;;;9.52;2.35;;;;;;;14.52;54.04;101051.66;4991579;28;20049;-73
2022/05/05 07:47:25;;;;;;;5.07;1.70;;;;;;;14.20;54.75;101068.84;4990037;28;20040;-72
2022/05/05 07:49:51;;;;;;;3.75;2.15;;;;;;;13.69;56.31;101079.22;4996088;28;20395;-72
2022/05/05 07:52:16;;;;;;;4.32;2.33;;;;;;;13.86;57.45;101180.13;4995806;28;20030;-72
2022/05/05 07:54:44;;;;;;;6.10;2.50;;;;;;;14.40;60.23;101369.22;4979981;28;20034;-73
2022/05/05 07:57:15;;;;;;;5.78;2.08;;;;;;;14.37;56.40;101185.06;4991607;28;20044;-74
2022/05/05 07:59:44;;;;;;;8.45;2.50;;;;;;;14.25;55.81;101138.16;4970477;28;20049;-73
2022/05/05 08:02:14;;;;;;;5.03;2.22;;;;;;;14.38;56.24;101194.81;4994748;28;20565;-76
2022/05/05 08:04:40;;;;;;;4.68;1.80;;;;;;;14.74;55.72;101232.72;4997644;28;20961;-75
2022/05/05 08:07:06;;;;;;;11.75;2.28;;;;;;;15.06;54.72;101236.22;4991131;28;20025;-72
2022/05/05 08:09:32;;;;;;;4.13;2.13;;;;;;;15.34;54.52;101243.72;4970319;28;20041;-72
2022/05/05 08:11:59;;;;;;;7.03;2.20;;;;;;;15.50;53.49;101200.53;4969877;28;20022;-73
2022/05/05 08:14:26;;;;;;;6.80;2.10;;;;;;;15.71;53.88;101267.13;4954498;28;20042;-73
2022/05/05 08:16:52;;;;;;;9.95;2.15;;;;;;;15.59;52.27;101177.03;4970288;28;20487;-72
2022/05/05 08:19:17;;;;;;;3.40;1.83;;;;;;;15.65;51.55;101102.81;4983937;28;20496;-72
2022/05/05 08:21:43;;;;;;;3.80;2.00;;;;;;;15.38;51.12;101068.31;4986745;28;20037;-73
2022/05/05 08:29:36;;;;;;;6.85;2.33;;;;;;;14.30;53.30;101039.06;4987053;28;20042;-72
2022/05/05 08:32:01;;;;;;;7.63;2.40;;;;;;;14.39;53.39;101083.66;4985926;28;20050;-73
2022/05/05 08:34:26;;;;;;;7.53;2.10;;;;;;;14.27;55.00;101158.44;4992388;28;20064;-72
2022/05/05 08:36:52;;;;;;;9.03;2.30;;;;;;;15.12;53.43;101222.03;4991824;28;20030;-72
2022/05/05 08:39:17;;;;;;;11.60;2.53;;;;;;;15.12;53.79;101213.97;4954830;28;20193;-73
2022/05/05 08:41:43;;;;;;;6.53;2.03;;;;;;;15.73;52.96;101275.84;4995125;28;20030;-73
2022/05/05 08:44:09;;;;;;;5.68;1.80;;;;;;;16.23;51.79;101281.53;4993998;28;20026;-75
2022/05/05 08:46:34;;;;;;;6.05;1.77;;;;;;;16.88;50.52;101288.78;4966675;28;20065;-74
2022/05/05 08:49:06;;;;;;;7.67;2.23;;;;;;;16.28;48.95;101095.91;4994582;28;20084;-73
2022/05/05 08:51:41;;;;;;;10.55;2.40;;;;;;;15.80;51.04;101141.31;4990336;28;20045;-73
2022/05/05 08:54:07;;;;;;;7.35;2.40;;;;;;;15.19;51.46;101060.78;4985735;28;20038;-72
2022/05/05 08:56:33;;;;;;;5.70;1.95;;;;;;;16.49;51.98;101323.34;4996977;28;20399;-73
2022/05/05 08:58:58;;;;;;;9.68;1.98;;;;;;;17.06;50.57;101336.91;4990214;28;20026;-73
2022/05/05 09:01:25;;;;;;;5.70;2.33;;;;;;;16.31;49.01;101079.34;5001867;28;20491;-76
2022/05/05 09:03:51;;;;;;;7.45;2.30;;;;;;;15.81;50.65;101113.41;4986985;28;20067;-72
2022/05/05 09:06:16;;;;;;;4.97;2.30;;;;;;;15.51;51.53;101126.00;4969208;28;20027;-74
2022/05/05 09:08:44;;;;;;;6.27;2.20;;;;;;;15.45;51.99;101142.88;4969048;28;20126;-74
2022/05/05 09:11:18;;;;;;;5.82;2.42;;;;;;;15.66;52.51;101218.34;4989901;28;20035;-76
2022/05/05 09:13:43;;;;;;;5.38;2.15;;;;;;;15.07;52.01;101094.53;4991090;28;20470;-72
2022/05/05 09:16:10;;;;;;;7.43;2.93;;;;;;;15.87;52.51;101287.63;4986800;28;20018;-74
2022/05/05 09:18:36;;;;;;;6.38;2.38;;;;;;;16.01;52.68;101294.91;4989898;28;20654;-72
2022/05/05 09:21:03;;;;;;;5.22;2.22;;;;;;;16.34;50.97;101256.81;4969151;28;20018;-72
2022/05/05 09:23:31;;;;;;;4.03;1.67;;;;;;;16.75;50.83;101315.56;4969514;28;20026;-75
2022/05/05 09:26:01;;;;;;;5.43;2.20;;;;;;;16.94;50.66;101316.03;4989919;28;20018;-73
2022/05/05 09:28:32;;;;;;;6.80;2.50;;;;;;;17.17;48.82;101245.72;4971295;28;20034;-73
2022/05/05 09:31:04;;;;;;;8.27;1.92;;;;;;;17.18;49.35;101285.97;4975910;28;20030;-73
2022/05/05 09:33:45;;;;;;;6.15;2.50;;;;;;;17.24;48.20;101209.66;4993284;28;20044;-73
2022/05/05 09:36:27;;;;;;;8.25;2.03;;;;;;;17.33;47.00;101158.25;4973728;28;20502;-76
2022/05/05 09:39:04;;;;;;;6.93;2.10;;;;;;;17.15;46.90;101070.53;4987466;28;20086;-73
2022/05/05 09:41:34;;;;;;;5.93;2.28;;;;;;;17.18;48.65;101210.41;4965599;28;20466;-74
2022/05/05 09:44:11;;;;;;;6.68;2.50;;;;;;;17.78;47.93;101274.84;4978118;28;20034;-73
2022/05/05 09:46:37;;;;;;;4.28;2.22;;;;;;;18.79;46.75;101359.03;4986768;28;20035;-73
2022/05/05 09:49:08;;;;;;;6.23;2.77;;;;;;;18.31;45.54;101150.88;4968737;28;20024;-73
2022/05/05 09:57:39;;;;;;;5.30;2.10;;;;;;;18.62;46.02;101250.34;4984472;28;20041;-75
2022/05/05 09:57:43;;;;;;;6.43;2.70;;;;;;;19.48;44.98;101292.13;4990126;28;20046;-73
2022/05/05 10:05:52;;;;;;;9.25;2.38;;;;;;;19.97;44.29;101351.34;4994539;28;20092;-73
2022/05/05 10:08:23;;;;;;;6.13;2.40;;;;;;;19.10;43.96;101141.19;4972184;28;20105;-73
2022/05/05 10:10:49;;;;;;;8.07;2.03;;;;;;;18.70;44.99;101116.81;4989683;28;20908;-76
2022/05/05 10:13:17;;;;;;;7.93;3.17;;;;;;;19.17;44.48;101188.00;4989964;28;20104;-74
2022/05/05 10:15:43;;;;;;;5.20;2.35;;;;;;;19.27;44.40;101218.22;4986699;28;20047;-73
2022/05/05 10:18:12;;;;;;;10.65;2.72;;;;;;;19.55;43.37;101218.00;4972427;28;20037;-76
2022/05/05 10:20:37;;;;;;;12.02;2.42;;;;;;;19.14;44.40;101159.50;4955879;28;20038;-73
2022/05/05 10:23:29;;;;;;;6.90;3.27;;;;;;;18.56;44.77;101070.81;4972421;28;20136;-73
2022/05/05 10:25:55;;;;;;;5.65;2.22;;;;;;;19.05;45.11;101195.09;4989424;28;20639;-74
2022/05/05 10:28:39;;;;;;;4.68;2.60;;;;;;;18.40;45.25;101100.13;4994713;28;20030;-73
2022/05/05 10:31:13;;;;;;;10.30;3.00;;;;;;;17.93;44.57;100952.31;4989851;28;20451;-73
2022/05/05 10:34:01;;;;;;;7.50;2.28;;;;;;;18.41;46.94;101237.78;4978108;28;20074;-73
2022/05/05 10:36:28;;;;;;;7.90;2.15;;;;;;;19.21;45.44;101284.00;4987539;28;20041;-73
2022/05/05 10:38:54;;;;;;;8.57;2.78;;;;;;;19.09;44.61;101197.19;4960145;28;20084;-73
2022/05/05 10:41:40;;;;;;;6.30;2.75;;;;;;;19.49;44.30;101242.38;4971739;28;20495;-73
2022/05/05 10:44:18;;;;;;;5.68;2.53;;;;;;;19.73;44.84;101298.63;4993651;28;20030;-73
2022/05/05 10:46:57;;;;;;;7.30;2.92;;;;;;;19.21;45.42;101248.81;4989103;28;20097;-73
2022/05/05 10:49:39;;;;;;;6.43;2.25;;;;;;;20.23;44.16;101323.34;4973927;28;20070;-74
2022/05/05 10:52:10;;;;;;;7.80;2.80;;;;;;;20.07;42.91;101182.06;4986054;28;20066;-74
2022/05/05 10:54:49;;;;;;;6.60;3.05;;;;;;;20.30;42.37;101204.03;4968118;28;20404;-74
2022/05/05 10:57:27;;;;;;;6.75;2.72;;;;;;;19.94;43.56;101215.44;4992856;28;20069;-74
2022/05/05 11:00:15;;;;;;;6.63;2.97;;;;;;;19.80;43.46;101182.94;4992675;28;20754;-74
2022/05/05 11:02:58;;;;;;;6.13;2.75;;;;;;;20.24;43.43;101251.81;4971310;28;20042;-74
2022/05/05 11:05:28;;;;;;;6.22;2.63;;;;;;;20.09;43.07;101198.91;4986470;28;20118;-74
2022/05/05 11:08:14;;;;;;;9.93;2.88;;;;;;;19.70;44.24;101230.50;4988322;28;20062;-74
2022/05/05 11:11:39;;;;;;;6.40;3.08;;;;;;;19.95;43.82;101217.13;4984898;28;20047;-74
2022/05/05 11:13:47;;;;;;;7.00;3.22;;;;;;;19.55;43.63;101125.06;4971731;28;20049;-74
2022/05/05 11:22:19;;;;;;;6.70;3.10;;;;;;;20.58;41.97;101141.34;4993052;28;20041;-74
2022/05/05 11:24:48;;;;;;;4.43;2.25;;;;;;;21.45;41.67;101311.75;4995940;28;20038;-74
2022/05/05 11:27:18;;;;;;;6.43;2.65;;;;;;;21.68;41.63;101362.72;4980755;28;20373;-73
2022/05/05 11:29:56;;;;;;;9.23;3.28;;;;;;;22.00;41.68;101359.97;4986716;28;20034;-74
2022/05/05 11:32:30;;;;;;;7.10;3.28;;;;;;;21.31;40.19;101092.91;4991572;28;20493;-74
2022/05/05 11:34:56;;;;;;;5.40;3.53;;;;;;;20.87;42.27;101185.97;4987888;28;20034;-74
2022/05/05 11:37:26;;;;;;;8.60;3.78;;;;;;;21.02;41.94;101195.69;4970876;28;20026;-74
2022/05/05 11:39:51;;;;;;;5.75;3.63;;;;;;;20.55;42.36;101119.19;4988158;28;20022;-73
2022/05/05 11:42:17;;;;;;;7.00;3.20;;;;;;;20.44;42.94;101167.66;4970431;28;20399;-72
2022/05/05 11:44:45;;;;;;;8.48;3.42;;;;;;;21.20;42.72;101273.66;4995913;28;20116;-72
2022/05/05 11:47:15;;;;;;;6.47;3.13;;;;;;;21.39;41.43;101226.50;4990979;28;20034;-72
2022/05/05 11:49:43;;;;;;;9.45;4.18;;;;;;;20.30;43.05;101111.88;4991408;28;20038;-72
2022/05/05 11:52:29;;;;;;;8.52;3.72;;;;;;;20.84;42.02;101189.16;4983331;28;20022;-72
2022/05/05 11:54:56;;;;;;;6.63;2.75;;;;;;;21.73;41.25;101297.72;4991288;28;20708;-72
2022/05/05 11:57:38;;;;;;;7.47;3.72;;;;;;;21.63;40.13;101139.78;4993679;28;20475;-72
2022/05/05 12:02:52;;;;;;;6.30;3.10;;;;;;;21.88;42.07;101344.38;4984409;28;20086;-72
2022/05/05 12:05:21;;;;;;;5.77;3.13;;;;;;;21.27;41.78;101182.94;4987802;28;20018;-72